sensor_id;sensor_type;location;lat;lon;timestamp;temperature;humidity
46378;DHT22;32083;47.360;9.650;2023-03-03T00:01:04;3.90;99.90
46378;DHT22;32083;47.360;9.650;2023-03-03T00:03:36;3.80;99.90
46378;DHT22;32083;47.360;9.650;2023-03-03T00:06:26;3.80;99.90
46378;DHT22;32083;47.360;9.650;2023-03-03T00:09:15;3.70;99.90
46378;DHT22;32083;47.360;9.650;2023-03-03T00:11:49;3.60;99.90
46378;DHT22;32083;47.360;9.650;2023-03-03T00:14:38;3.60;99.90
46378;DHT22;32083;47.360;9.650;2023-03-03T00:17:29;3.60;99.90
46378;DHT22;32083;47.360;9.650;2023-03-03T00:20:38;3.60;99.90
46378;DHT22;32083;47.360;9.650;2023-03-03T00:23:36;3.60;99.90
46378;DHT22;32083;47.360;9.650;2023-03-03T00:26:47;3.50;99.90
46378;DHT22;32083;47.360;9.650;2023-03-03T00:29:45;3.50;99.90
46378;DHT22;32083;47.360;9.650;2023-03-03T00:32:43;3.40;99.90
46378;DHT22;32083;47.360;9.650;2023-03-03T00:35:39;3.30;99.90
46378;DHT22;32083;47.360;9.650;2023-03-03T00:38:16;3.30;99.90
46378;DHT22;32083;47.360;9.650;2023-03-03T00:40:55;3.40;99.90
46378;DHT22;32083;47.360;9.650;2023-03-03T00:43:42;3.40;99.90
46378;DHT22;32083;47.360;9.650;2023-03-03T00:46:19;3.30;99.90
46378;DHT22;32083;47.360;9.650;2023-03-03T00:48:48;3.30;99.90
46378;DHT22;32083;47.360;9.650;2023-03-03T00:51:30;3.30;99.90
46378;DHT22;32083;47.360;9.650;2023-03-03T00:54:02;3.20;99.90
46378;DHT22;32083;47.360;9.650;2023-03-03T00:56:28;3.20;99.90
46378;DHT22;32083;47.360;9.650;2023-03-03T00:59:16;3.10;99.90
46378;DHT22;32083;47.360;9.650;2023-03-03T01:01:43;3.10;99.90
46378;DHT22;32083;47.360;9.650;2023-03-03T01:04:10;3.00;99.90
46378;DHT22;32083;47.360;9.650;2023-03-03T01:06:41;3.00;99.90
46378;DHT22;32083;47.360;9.650;2023-03-03T01:09:09;3.00;99.90
46378;DHT22;32083;47.360;9.650;2023-03-03T01:11:37;3.00;99.90
46378;DHT22;32083;47.360;9.650;2023-03-03T01:14:10;3.00;99.90
46378;DHT22;32083;47.360;9.650;2023-03-03T01:16:38;3.00;99.90
46378;DHT22;32083;47.360;9.650;2023-03-03T01:19:21;3.00;99.90
46378;DHT22;32083;47.360;9.650;2023-03-03T01:21:49;3.00;99.90
46378;DHT22;32083;47.360;9.650;2023-03-03T01:24:20;3.00;99.90
46378;DHT22;32083;47.360;9.650;2023-03-03T01:26:58;3.00;99.90
46378;DHT22;32083;47.360;9.650;2023-03-03T01:29:25;2.90;99.90
46378;DHT22;32083;47.360;9.650;2023-03-03T01:31:54;2.80;99.90
46378;DHT22;32083;47.360;9.650;2023-03-03T01:34:20;2.70;99.90
46378;DHT22;32083;47.360;9.650;2023-03-03T01:37:02;2.70;99.90
46378;DHT22;32083;47.360;9.650;2023-03-03T01:39:27;2.60;99.90
46378;DHT22;32083;47.360;9.650;2023-03-03T01:42:02;2.70;99.90
46378;DHT22;32083;47.360;9.650;2023-03-03T01:44:36;2.70;99.90
46378;DHT22;32083;47.360;9.650;2023-03-03T01:47:37;2.70;99.90
46378;DHT22;32083;47.360;9.650;2023-03-03T01:50:11;2.80;99.90
46378;DHT22;32083;47.360;9.650;2023-03-03T01:52:42;2.80;99.90
46378;DHT22;32083;47.360;9.650;2023-03-03T01:55:22;2.80;99.90
46378;DHT22;32083;47.360;9.650;2023-03-03T02:00:49;2.90;99.90
46378;DHT22;32083;47.360;9.650;2023-03-03T02:03:36;2.90;99.90
46378;DHT22;32083;47.360;9.650;2023-03-03T02:06:10;2.90;99.90
46378;DHT22;32083;47.360;9.650;2023-03-03T02:11:55;2.90;99.90
46378;DHT22;32083;47.360;9.650;2023-03-03T02:14:31;2.90;99.90
46378;DHT22;32083;47.360;9.650;2023-03-03T02:17:00;3.00;99.90
46378;DHT22;32083;47.360;9.650;2023-03-03T02:26:34;3.00;99.90
46378;DHT22;32083;47.360;9.650;2023-03-03T02:29:24;3.00;99.90
46378;DHT22;32083;47.360;9.650;2023-03-03T02:32:10;2.90;99.90
46378;DHT22;32083;47.360;9.650;2023-03-03T02:37:06;3.00;99.90
46378;DHT22;32083;47.360;9.650;2023-03-03T02:39:32;3.00;99.90
46378;DHT22;32083;47.360;9.650;2023-03-03T02:42:45;3.10;99.90
46378;DHT22;32083;47.360;9.650;2023-03-03T02:45:14;3.10;99.90
46378;DHT22;32083;47.360;9.650;2023-03-03T02:47:49;3.10;99.90
46378;DHT22;32083;47.360;9.650;2023-03-03T02:50:25;3.10;99.90
46378;DHT22;32083;47.360;9.650;2023-03-03T02:52:50;3.10;99.90
46378;DHT22;32083;47.360;9.650;2023-03-03T02:55:19;3.10;99.90
46378;DHT22;32083;47.360;9.650;2023-03-03T02:57:48;3.10;99.90
46378;DHT22;32083;47.360;9.650;2023-03-03T03:00:34;3.20;99.90
46378;DHT22;32083;47.360;9.650;2023-03-03T03:05:28;3.20;99.90
46378;DHT22;32083;47.360;9.650;2023-03-03T03:07:53;3.10;99.90
46378;DHT22;32083;47.360;9.650;2023-03-03T03:13:10;3.10;99.90
46378;DHT22;32083;47.360;9.650;2023-03-03T03:15:37;3.20;99.90
46378;DHT22;32083;47.360;9.650;2023-03-03T03:18:03;3.20;99.90
46378;DHT22;32083;47.360;9.650;2023-03-03T03:20:29;3.20;99.90
46378;DHT22;32083;47.360;9.650;2023-03-03T03:23:11;3.20;99.90
46378;DHT22;32083;47.360;9.650;2023-03-03T03:26:00;3.30;99.90
46378;DHT22;32083;47.360;9.650;2023-03-03T03:28:47;3.30;99.90
46378;DHT22;32083;47.360;9.650;2023-03-03T03:34:01;3.30;99.90
46378;DHT22;32083;47.360;9.650;2023-03-03T03:36:29;3.30;99.90
46378;DHT22;32083;47.360;9.650;2023-03-03T03:38:57;3.30;99.90
46378;DHT22;32083;47.360;9.650;2023-03-03T03:41:45;3.30;99.90
46378;DHT22;32083;47.360;9.650;2023-03-03T03:44:32;3.30;99.90
46378;DHT22;32083;47.360;9.650;2023-03-03T03:46:58;3.30;99.90
46378;DHT22;32083;47.360;9.650;2023-03-03T03:49:32;3.30;99.90
46378;DHT22;32083;47.360;9.650;2023-03-03T03:52:01;3.30;99.90
46378;DHT22;32083;47.360;9.650;2023-03-03T03:54:52;3.30;99.90
46378;DHT22;32083;47.360;9.650;2023-03-03T03:57:38;3.30;99.90
46378;DHT22;32083;47.360;9.650;2023-03-03T04:00:05;3.30;99.90
46378;DHT22;32083;47.360;9.650;2023-03-03T04:02:36;3.30;99.90
46378;DHT22;32083;47.360;9.650;2023-03-03T04:05:03;3.30;99.90
46378;DHT22;32083;47.360;9.650;2023-03-03T04:07:30;3.30;99.90
46378;DHT22;32083;47.360;9.650;2023-03-03T04:09:57;3.30;99.90
46378;DHT22;32083;47.360;9.650;2023-03-03T04:12:30;3.30;99.90
46378;DHT22;32083;47.360;9.650;2023-03-03T04:15:37;3.20;99.90
46378;DHT22;32083;47.360;9.650;2023-03-03T04:18:06;3.20;99.90
46378;DHT22;32083;47.360;9.650;2023-03-03T04:20:51;3.20;99.90
46378;DHT22;32083;47.360;9.650;2023-03-03T04:23:22;3.10;99.90
46378;DHT22;32083;47.360;9.650;2023-03-03T04:25:51;3.00;99.90
46378;DHT22;32083;47.360;9.650;2023-03-03T04:28:21;3.00;99.90
46378;DHT22;32083;47.360;9.650;2023-03-03T04:30:54;3.00;99.90
46378;DHT22;32083;47.360;9.650;2023-03-03T04:33:25;3.00;99.90
46378;DHT22;32083;47.360;9.650;2023-03-03T04:35:56;2.90;99.90
46378;DHT22;32083;47.360;9.650;2023-03-03T04:38:23;2.90;99.90
46378;DHT22;32083;47.360;9.650;2023-03-03T04:41:05;2.90;99.90
46378;DHT22;32083;47.360;9.650;2023-03-03T04:43:38;2.90;99.90
46378;DHT22;32083;47.360;9.650;2023-03-03T04:46:04;2.90;99.90
46378;DHT22;32083;47.360;9.650;2023-03-03T04:48:36;2.90;99.90
46378;DHT22;32083;47.360;9.650;2023-03-03T04:51:03;2.90;99.90
46378;DHT22;32083;47.360;9.650;2023-03-03T04:53:29;2.90;99.90
46378;DHT22;32083;47.360;9.650;2023-03-03T04:56:01;2.90;99.90
46378;DHT22;32083;47.360;9.650;2023-03-03T04:58:52;2.90;99.90
46378;DHT22;32083;47.360;9.650;2023-03-03T05:01:19;2.90;99.90
46378;DHT22;32083;47.360;9.650;2023-03-03T05:03:57;2.90;99.90
46378;DHT22;32083;47.360;9.650;2023-03-03T05:06:32;2.90;99.90
46378;DHT22;32083;47.360;9.650;2023-03-03T05:09:00;2.90;99.90
46378;DHT22;32083;47.360;9.650;2023-03-03T05:11:28;3.00;99.90
46378;DHT22;32083;47.360;9.650;2023-03-03T05:13:54;3.00;99.90
46378;DHT22;32083;47.360;9.650;2023-03-03T05:16:25;3.00;99.90
46378;DHT22;32083;47.360;9.650;2023-03-03T05:19:11;3.00;99.90
46378;DHT22;32083;47.360;9.650;2023-03-03T05:21:40;3.10;99.90
46378;DHT22;32083;47.360;9.650;2023-03-03T05:24:19;3.10;99.90
46378;DHT22;32083;47.360;9.650;2023-03-03T05:26:51;3.10;99.90
46378;DHT22;32083;47.360;9.650;2023-03-03T05:29:20;3.10;99.90
46378;DHT22;32083;47.360;9.650;2023-03-03T05:31:52;3.10;99.90
46378;DHT22;32083;47.360;9.650;2023-03-03T05:34:20;3.10;99.90
46378;DHT22;32083;47.360;9.650;2023-03-03T05:36:47;3.20;99.90
46378;DHT22;32083;47.360;9.650;2023-03-03T05:39:16;3.20;99.90
46378;DHT22;32083;47.360;9.650;2023-03-03T05:41:45;3.20;99.90
46378;DHT22;32083;47.360;9.650;2023-03-03T05:44:15;3.10;99.90
46378;DHT22;32083;47.360;9.650;2023-03-03T05:46:45;3.10;99.90
46378;DHT22;32083;47.360;9.650;2023-03-03T05:49:15;3.20;99.90
46378;DHT22;32083;47.360;9.650;2023-03-03T05:51:40;3.20;99.90
46378;DHT22;32083;47.360;9.650;2023-03-03T05:54:15;3.20;99.90
46378;DHT22;32083;47.360;9.650;2023-03-03T05:56:44;3.20;99.90
46378;DHT22;32083;47.360;9.650;2023-03-03T05:59:17;3.20;99.90
46378;DHT22;32083;47.360;9.650;2023-03-03T06:02:08;3.20;99.90
46378;DHT22;32083;47.360;9.650;2023-03-03T06:05:17;3.30;99.90
46378;DHT22;32083;47.360;9.650;2023-03-03T06:08:24;3.20;99.90
46378;DHT22;32083;47.360;9.650;2023-03-03T06:10:50;3.30;99.90
46378;DHT22;32083;47.360;9.650;2023-03-03T06:13:56;3.30;99.90
46378;DHT22;32083;47.360;9.650;2023-03-03T06:16:42;3.30;99.90
46378;DHT22;32083;47.360;9.650;2023-03-03T06:19:46;3.30;99.90
46378;DHT22;32083;47.360;9.650;2023-03-03T06:22:34;3.30;99.90
46378;DHT22;32083;47.360;9.650;2023-03-03T06:25:00;3.30;99.90
46378;DHT22;32083;47.360;9.650;2023-03-03T06:27:29;3.40;99.90
46378;DHT22;32083;47.360;9.650;2023-03-03T06:30:44;3.40;99.90
46378;DHT22;32083;47.360;9.650;2023-03-03T06:33:10;3.40;99.90
46378;DHT22;32083;47.360;9.650;2023-03-03T06:35:36;3.40;99.90
46378;DHT22;32083;47.360;9.650;2023-03-03T06:38:02;3.40;99.90
46378;DHT22;32083;47.360;9.650;2023-03-03T06:40:28;3.40;99.90
46378;DHT22;32083;47.360;9.650;2023-03-03T06:42:54;3.50;99.90
46378;DHT22;32083;47.360;9.650;2023-03-03T06:45:20;3.40;99.90
46378;DHT22;32083;47.360;9.650;2023-03-03T06:47:46;3.40;99.90
46378;DHT22;32083;47.360;9.650;2023-03-03T06:50:12;3.40;99.90
46378;DHT22;32083;47.360;9.650;2023-03-03T06:52:38;3.40;99.90
46378;DHT22;32083;47.360;9.650;2023-03-03T06:55:21;3.50;99.90
46378;DHT22;32083;47.360;9.650;2023-03-03T06:57:47;3.60;99.90
46378;DHT22;32083;47.360;9.650;2023-03-03T07:00:18;3.60;99.90
46378;DHT22;32083;47.360;9.650;2023-03-03T07:02:47;3.50;99.90
46378;DHT22;32083;47.360;9.650;2023-03-03T07:05:18;3.40;99.90
46378;DHT22;32083;47.360;9.650;2023-03-03T07:07:44;3.40;99.90
46378;DHT22;32083;47.360;9.650;2023-03-03T07:10:22;3.40;99.90
46378;DHT22;32083;47.360;9.650;2023-03-03T07:12:48;3.40;99.90
46378;DHT22;32083;47.360;9.650;2023-03-03T07:15:15;3.40;99.90
46378;DHT22;32083;47.360;9.650;2023-03-03T07:17:44;3.50;99.90
46378;DHT22;32083;47.360;9.650;2023-03-03T07:20:22;3.60;99.90
46378;DHT22;32083;47.360;9.650;2023-03-03T07:22:49;3.70;99.90
46378;DHT22;32083;47.360;9.650;2023-03-03T07:25:34;3.70;99.90
46378;DHT22;32083;47.360;9.650;2023-03-03T07:28:32;3.70;99.90
46378;DHT22;32083;47.360;9.650;2023-03-03T07:30:57;3.70;99.90
46378;DHT22;32083;47.360;9.650;2023-03-03T07:33:28;3.70;99.90
46378;DHT22;32083;47.360;9.650;2023-03-03T07:35:58;3.80;99.90
46378;DHT22;32083;47.360;9.650;2023-03-03T07:38:33;3.80;99.90
46378;DHT22;32083;47.360;9.650;2023-03-03T07:41:07;3.90;99.90
46378;DHT22;32083;47.360;9.650;2023-03-03T07:43:49;4.00;99.90
46378;DHT22;32083;47.360;9.650;2023-03-03T07:46:48;4.10;99.90
46378;DHT22;32083;47.360;9.650;2023-03-03T07:49:22;4.00;99.90
46378;DHT22;32083;47.360;9.650;2023-03-03T07:51:56;4.10;99.90
46378;DHT22;32083;47.360;9.650;2023-03-03T07:54:29;4.00;99.90
46378;DHT22;32083;47.360;9.650;2023-03-03T08:02:29;4.10;99.90
46378;DHT22;32083;47.360;9.650;2023-03-03T08:04:57;4.10;99.90
46378;DHT22;32083;47.360;9.650;2023-03-03T08:07:24;4.20;99.90
46378;DHT22;32083;47.360;9.650;2023-03-03T08:10:00;4.20;99.90
46378;DHT22;32083;47.360;9.650;2023-03-03T08:12:41;4.30;99.90
46378;DHT22;32083;47.360;9.650;2023-03-03T08:15:16;4.30;99.90
46378;DHT22;32083;47.360;9.650;2023-03-03T08:17:43;4.40;99.90
46378;DHT22;32083;47.360;9.650;2023-03-03T08:20:38;4.30;99.90
46378;DHT22;32083;47.360;9.650;2023-03-03T08:23:07;4.30;99.90
46378;DHT22;32083;47.360;9.650;2023-03-03T08:25:33;4.40;99.90
46378;DHT22;32083;47.360;9.650;2023-03-03T08:27:59;4.40;99.90
46378;DHT22;32083;47.360;9.650;2023-03-03T08:33:35;4.30;99.90
46378;DHT22;32083;47.360;9.650;2023-03-03T08:39:58;4.30;99.90
46378;DHT22;32083;47.360;9.650;2023-03-03T08:44:58;4.10;99.90
46378;DHT22;32083;47.360;9.650;2023-03-03T08:47:47;4.10;99.90
46378;DHT22;32083;47.360;9.650;2023-03-03T08:57:07;4.30;99.90
46378;DHT22;32083;47.360;9.650;2023-03-03T08:59:47;4.20;99.90
46378;DHT22;32083;47.360;9.650;2023-03-03T09:16:48;4.30;99.90
46378;DHT22;32083;47.360;9.650;2023-03-03T09:19:58;4.20;99.90
46378;DHT22;32083;47.360;9.650;2023-03-03T09:22:25;4.20;99.90
46378;DHT22;32083;47.360;9.650;2023-03-03T09:24:56;4.30;99.90
46378;DHT22;32083;47.360;9.650;2023-03-03T09:27:30;4.40;99.90
46378;DHT22;32083;47.360;9.650;2023-03-03T09:32:57;4.50;99.90
46378;DHT22;32083;47.360;9.650;2023-03-03T09:35:36;4.40;99.90
46378;DHT22;32083;47.360;9.650;2023-03-03T09:38:31;4.30;99.90
46378;DHT22;32083;47.360;9.650;2023-03-03T09:49:35;4.50;99.90
46378;DHT22;32083;47.360;9.650;2023-03-03T09:57:57;4.40;99.90
46378;DHT22;32083;47.360;9.650;2023-03-03T10:03:41;4.50;99.90
46378;DHT22;32083;47.360;9.650;2023-03-03T10:11:41;4.70;99.90
46378;DHT22;32083;47.360;9.650;2023-03-03T10:14:40;4.80;99.90
46378;DHT22;32083;47.360;9.650;2023-03-03T10:17:21;4.80;99.90
46378;DHT22;32083;47.360;9.650;2023-03-03T10:25:19;5.20;99.90
46378;DHT22;32083;47.360;9.650;2023-03-03T10:36:08;5.10;99.90
46378;DHT22;32083;47.360;9.650;2023-03-03T11:00:35;5.40;99.90
46378;DHT22;32083;47.360;9.650;2023-03-03T11:03:32;5.40;99.90
46378;DHT22;32083;47.360;9.650;2023-03-03T11:06:13;5.30;99.90
46378;DHT22;32083;47.360;9.650;2023-03-03T11:14:22;5.30;99.90
46378;DHT22;32083;47.360;9.650;2023-03-03T11:17:23;5.50;99.90
46378;DHT22;32083;47.360;9.650;2023-03-03T11:22:43;5.70;99.90
46378;DHT22;32083;47.360;9.650;2023-03-03T11:30:53;5.70;99.90
46378;DHT22;32083;47.360;9.650;2023-03-03T11:33:25;5.90;99.90
46378;DHT22;32083;47.360;9.650;2023-03-03T11:36:15;6.00;99.90
46378;DHT22;32083;47.360;9.650;2023-03-03T11:39:06;6.10;99.90
46378;DHT22;32083;47.360;9.650;2023-03-03T11:41:38;6.20;99.90
46378;DHT22;32083;47.360;9.650;2023-03-03T11:47:27;6.30;99.90
46378;DHT22;32083;47.360;9.650;2023-03-03T11:50:20;6.30;99.90
46378;DHT22;32083;47.360;9.650;2023-03-03T11:55:29;6.20;99.90
46378;DHT22;32083;47.360;9.650;2023-03-03T11:58:24;6.20;99.90
46378;DHT22;32083;47.360;9.650;2023-03-03T12:12:14;6.30;99.90
46378;DHT22;32083;47.360;9.650;2023-03-03T12:25:50;6.00;99.90
46378;DHT22;32083;47.360;9.650;2023-03-03T12:28:34;5.90;99.90
46378;DHT22;32083;47.360;9.650;2023-03-03T12:33:51;6.00;99.90
46378;DHT22;32083;47.360;9.650;2023-03-03T12:41:44;6.00;99.90
46378;DHT22;32083;47.360;9.650;2023-03-03T12:44:20;6.00;99.90
46378;DHT22;32083;47.360;9.650;2023-03-03T12:46:59;6.10;99.90
46378;DHT22;32083;47.360;9.650;2023-03-03T12:58:51;5.90;99.90
46378;DHT22;32083;47.360;9.650;2023-03-03T13:12:20;6.10;99.90
46378;DHT22;32083;47.360;9.650;2023-03-03T13:17:34;6.20;99.90
46378;DHT22;32083;47.360;9.650;2023-03-03T13:23:16;6.20;99.90
46378;DHT22;32083;47.360;9.650;2023-03-03T13:29:01;6.40;99.90
46378;DHT22;32083;47.360;9.650;2023-03-03T13:31:53;6.20;99.90
46378;DHT22;32083;47.360;9.650;2023-03-03T13:34:24;6.30;99.90
46378;DHT22;32083;47.360;9.650;2023-03-03T13:37:14;6.40;99.90
46378;DHT22;32083;47.360;9.650;2023-03-03T14:08:11;6.70;99.90
46378;DHT22;32083;47.360;9.650;2023-03-03T14:13:36;6.50;99.90
46378;DHT22;32083;47.360;9.650;2023-03-03T14:16:36;6.50;99.90
46378;DHT22;32083;47.360;9.650;2023-03-03T14:19:14;6.50;99.90
46378;DHT22;32083;47.360;9.650;2023-03-03T14:22:03;6.50;99.90
46378;DHT22;32083;47.360;9.650;2023-03-03T14:24:30;6.50;99.90
46378;DHT22;32083;47.360;9.650;2023-03-03T14:26:58;6.40;99.90
46378;DHT22;32083;47.360;9.650;2023-03-03T14:29:31;6.50;99.90
46378;DHT22;32083;47.360;9.650;2023-03-03T14:31:58;6.40;99.90
46378;DHT22;32083;47.360;9.650;2023-03-03T14:40:13;6.60;99.90
46378;DHT22;32083;47.360;9.650;2023-03-03T14:42:53;6.50;99.90
46378;DHT22;32083;47.360;9.650;2023-03-03T14:45:39;6.50;99.90
46378;DHT22;32083;47.360;9.650;2023-03-03T14:48:15;6.50;99.90
46378;DHT22;32083;47.360;9.650;2023-03-03T14:50:51;6.50;99.90
46378;DHT22;32083;47.360;9.650;2023-03-03T14:55:49;6.40;99.90
46378;DHT22;32083;47.360;9.650;2023-03-03T14:58:33;6.40;99.90
46378;DHT22;32083;47.360;9.650;2023-03-03T15:06:40;6.30;99.90
46378;DHT22;32083;47.360;9.650;2023-03-03T15:09:27;6.30;99.90
46378;DHT22;32083;47.360;9.650;2023-03-03T15:17:40;6.30;99.90
46378;DHT22;32083;47.360;9.650;2023-03-03T15:26:12;6.40;99.90
46378;DHT22;32083;47.360;9.650;2023-03-03T15:48:35;6.30;99.90
46378;DHT22;32083;47.360;9.650;2023-03-03T15:51:23;6.40;99.90
46378;DHT22;32083;47.360;9.650;2023-03-03T15:54:25;6.30;99.90
46378;DHT22;32083;47.360;9.650;2023-03-03T15:56:56;6.30;99.90
46378;DHT22;32083;47.360;9.650;2023-03-03T15:59:57;6.40;99.90
46378;DHT22;32083;47.360;9.650;2023-03-03T16:03:19;6.40;99.90
46378;DHT22;32083;47.360;9.650;2023-03-03T16:06:10;6.30;99.90
46378;DHT22;32083;47.360;9.650;2023-03-03T16:09:16;6.40;99.90
46378;DHT22;32083;47.360;9.650;2023-03-03T16:11:52;6.40;99.90
46378;DHT22;32083;47.360;9.650;2023-03-03T16:17:13;6.30;99.90
46378;DHT22;32083;47.360;9.650;2023-03-03T16:25:48;6.10;99.90
46378;DHT22;32083;47.360;9.650;2023-03-03T16:28:38;6.20;99.90
46378;DHT22;32083;47.360;9.650;2023-03-03T16:31:28;6.10;99.90
46378;DHT22;32083;47.360;9.650;2023-03-03T16:37:03;6.10;99.90
46378;DHT22;32083;47.360;9.650;2023-03-03T16:45:19;6.00;99.90
46378;DHT22;32083;47.360;9.650;2023-03-03T17:01:48;6.00;99.90
46378;DHT22;32083;47.360;9.650;2023-03-03T17:16:41;6.20;99.90
46378;DHT22;32083;47.360;9.650;2023-03-03T17:19:48;6.10;99.90
46378;DHT22;32083;47.360;9.650;2023-03-03T17:36:50;6.20;99.90
46378;DHT22;32083;47.360;9.650;2023-03-03T17:42:08;6.30;99.90
46378;DHT22;32083;47.360;9.650;2023-03-03T17:47:57;6.40;99.90
46378;DHT22;32083;47.360;9.650;2023-03-03T17:50:47;6.40;99.90
46378;DHT22;32083;47.360;9.650;2023-03-03T17:53:35;6.30;99.90
46378;DHT22;32083;47.360;9.650;2023-03-03T18:01:57;6.40;99.90
46378;DHT22;32083;47.360;9.650;2023-03-03T18:07:50;6.40;99.90
46378;DHT22;32083;47.360;9.650;2023-03-03T18:13:51;6.40;99.90
46378;DHT22;32083;47.360;9.650;2023-03-03T18:21:42;6.40;99.90
46378;DHT22;32083;47.360;9.650;2023-03-03T18:26:55;6.40;99.90
46378;DHT22;32083;47.360;9.650;2023-03-03T18:29:24;6.30;99.90
46378;DHT22;32083;47.360;9.650;2023-03-03T18:37:00;6.40;99.90
46378;DHT22;32083;47.360;9.650;2023-03-03T18:39:46;6.30;99.90
46378;DHT22;32083;47.360;9.650;2023-03-03T18:44:45;6.30;99.90
46378;DHT22;32083;47.360;9.650;2023-03-03T18:47:14;6.30;99.90
46378;DHT22;32083;47.360;9.650;2023-03-03T18:52:37;6.30;99.90
46378;DHT22;32083;47.360;9.650;2023-03-03T18:55:25;6.30;99.90
46378;DHT22;32083;47.360;9.650;2023-03-03T19:00:58;6.30;99.90
46378;DHT22;32083;47.360;9.650;2023-03-03T19:08:55;6.30;99.90
46378;DHT22;32083;47.360;9.650;2023-03-03T19:16:42;6.30;99.90
46378;DHT22;32083;47.360;9.650;2023-03-03T19:19:19;6.30;99.90
46378;DHT22;32083;47.360;9.650;2023-03-03T19:22:19;6.20;99.90
46378;DHT22;32083;47.360;9.650;2023-03-03T19:48:47;6.20;99.90
46378;DHT22;32083;47.360;9.650;2023-03-03T19:56:55;6.10;99.90
46378;DHT22;32083;47.360;9.650;2023-03-03T20:00:02;6.20;99.90
46378;DHT22;32083;47.360;9.650;2023-03-03T20:02:54;6.20;99.90
46378;DHT22;32083;47.360;9.650;2023-03-03T20:05:43;6.20;99.90
46378;DHT22;32083;47.360;9.650;2023-03-03T20:16:37;6.10;99.90
46378;DHT22;32083;47.360;9.650;2023-03-03T20:27:41;6.10;99.90
46378;DHT22;32083;47.360;9.650;2023-03-03T20:38:43;6.10;99.90
46378;DHT22;32083;47.360;9.650;2023-03-03T20:44:15;6.10;99.90
46378;DHT22;32083;47.360;9.650;2023-03-03T20:55:33;6.00;99.90
46378;DHT22;32083;47.360;9.650;2023-03-03T21:01:10;6.00;99.90
46378;DHT22;32083;47.360;9.650;2023-03-03T21:03:39;6.00;99.90
46378;DHT22;32083;47.360;9.650;2023-03-03T21:06:13;6.00;99.90
46378;DHT22;32083;47.360;9.650;2023-03-03T21:08:55;6.00;99.90
46378;DHT22;32083;47.360;9.650;2023-03-03T21:13:57;6.00;99.90
46378;DHT22;32083;47.360;9.650;2023-03-03T21:19:03;6.10;99.90
46378;DHT22;32083;47.360;9.650;2023-03-03T21:24:02;6.00;99.90
46378;DHT22;32083;47.360;9.650;2023-03-03T21:29:39;6.00;99.90
46378;DHT22;32083;47.360;9.650;2023-03-03T21:32:07;6.00;99.90
46378;DHT22;32083;47.360;9.650;2023-03-03T21:34:40;5.90;99.90
46378;DHT22;32083;47.360;9.650;2023-03-03T21:37:10;5.90;99.90
46378;DHT22;32083;47.360;9.650;2023-03-03T21:39:42;6.00;99.90
46378;DHT22;32083;47.360;9.650;2023-03-03T21:42:12;6.00;99.90
46378;DHT22;32083;47.360;9.650;2023-03-03T21:44:48;6.00;99.90
46378;DHT22;32083;47.360;9.650;2023-03-03T21:47:17;6.00;99.90
46378;DHT22;32083;47.360;9.650;2023-03-03T21:49:48;6.00;99.90
46378;DHT22;32083;47.360;9.650;2023-03-03T21:52:15;6.00;99.90
46378;DHT22;32083;47.360;9.650;2023-03-03T21:54:46;6.00;99.90
46378;DHT22;32083;47.360;9.650;2023-03-03T21:57:12;6.00;99.90
46378;DHT22;32083;47.360;9.650;2023-03-03T21:59:39;6.00;99.90
46378;DHT22;32083;47.360;9.650;2023-03-03T22:02:05;6.00;99.90
46378;DHT22;32083;47.360;9.650;2023-03-03T22:04:31;5.90;99.90
46378;DHT22;32083;47.360;9.650;2023-03-03T22:06:58;5.90;99.90
46378;DHT22;32083;47.360;9.650;2023-03-03T22:09:23;5.90;99.90
46378;DHT22;32083;47.360;9.650;2023-03-03T22:11:49;5.90;99.90
46378;DHT22;32083;47.360;9.650;2023-03-03T22:14:15;5.80;99.90
46378;DHT22;32083;47.360;9.650;2023-03-03T22:16:41;5.80;99.90
46378;DHT22;32083;47.360;9.650;2023-03-03T22:19:07;5.80;99.90
46378;DHT22;32083;47.360;9.650;2023-03-03T22:21:35;5.90;99.90
46378;DHT22;32083;47.360;9.650;2023-03-03T22:24:01;5.90;99.90
46378;DHT22;32083;47.360;9.650;2023-03-03T22:26:27;5.90;99.90
46378;DHT22;32083;47.360;9.650;2023-03-03T22:28:53;5.90;99.90
46378;DHT22;32083;47.360;9.650;2023-03-03T22:31:19;5.90;99.90
46378;DHT22;32083;47.360;9.650;2023-03-03T22:33:46;5.90;99.90
46378;DHT22;32083;47.360;9.650;2023-03-03T22:36:12;5.90;99.90
46378;DHT22;32083;47.360;9.650;2023-03-03T22:38:38;5.90;99.90
46378;DHT22;32083;47.360;9.650;2023-03-03T22:41:05;5.90;99.90
46378;DHT22;32083;47.360;9.650;2023-03-03T22:43:31;5.90;99.90
46378;DHT22;32083;47.360;9.650;2023-03-03T22:45:59;6.00;99.90
46378;DHT22;32083;47.360;9.650;2023-03-03T22:48:26;6.00;99.90
46378;DHT22;32083;47.360;9.650;2023-03-03T22:50:53;6.00;99.90
46378;DHT22;32083;47.360;9.650;2023-03-03T22:53:20;6.00;99.90
46378;DHT22;32083;47.360;9.650;2023-03-03T22:55:46;6.00;99.90
46378;DHT22;32083;47.360;9.650;2023-03-03T22:58:13;6.00;99.90
46378;DHT22;32083;47.360;9.650;2023-03-03T23:00:39;6.00;99.90
46378;DHT22;32083;47.360;9.650;2023-03-03T23:03:10;6.00;99.90
46378;DHT22;32083;47.360;9.650;2023-03-03T23:05:37;5.90;99.90
46378;DHT22;32083;47.360;9.650;2023-03-03T23:08:04;5.90;99.90
46378;DHT22;32083;47.360;9.650;2023-03-03T23:10:30;5.90;99.90
46378;DHT22;32083;47.360;9.650;2023-03-03T23:12:56;5.90;99.90
46378;DHT22;32083;47.360;9.650;2023-03-03T23:15:22;5.80;99.90
46378;DHT22;32083;47.360;9.650;2023-03-03T23:17:48;5.80;99.90
46378;DHT22;32083;47.360;9.650;2023-03-03T23:20:20;5.80;99.90
46378;DHT22;32083;47.360;9.650;2023-03-03T23:22:47;5.70;99.90
46378;DHT22;32083;47.360;9.650;2023-03-03T23:25:13;5.70;99.90
46378;DHT22;32083;47.360;9.650;2023-03-03T23:27:40;5.70;99.90
46378;DHT22;32083;47.360;9.650;2023-03-03T23:30:08;5.70;99.90
46378;DHT22;32083;47.360;9.650;2023-03-03T23:32:34;5.70;99.90
46378;DHT22;32083;47.360;9.650;2023-03-03T23:35:00;5.60;99.90
46378;DHT22;32083;47.360;9.650;2023-03-03T23:37:26;5.60;99.90
46378;DHT22;32083;47.360;9.650;2023-03-03T23:39:52;5.60;99.90
46378;DHT22;32083;47.360;9.650;2023-03-03T23:42:18;5.60;99.90
46378;DHT22;32083;47.360;9.650;2023-03-03T23:44:44;5.60;99.90
46378;DHT22;32083;47.360;9.650;2023-03-03T23:47:10;5.60;99.90
46378;DHT22;32083;47.360;9.650;2023-03-03T23:49:36;5.50;99.90
46378;DHT22;32083;47.360;9.650;2023-03-03T23:52:03;5.50;99.90
46378;DHT22;32083;47.360;9.650;2023-03-03T23:54:29;5.40;99.90
46378;DHT22;32083;47.360;9.650;2023-03-03T23:56:55;5.40;99.90
46378;DHT22;32083;47.360;9.650;2023-03-03T23:59:21;5.40;99.90
